sensor_id;sensor_type;location;lat;lon;timestamp;temperature;humidity
8914;DHT22;4492;48.736;9.092;2023-07-02T00:02:22;15.10;99.90
8914;DHT22;4492;48.736;9.092;2023-07-02T00:04:47;15.10;99.90
8914;DHT22;4492;48.736;9.092;2023-07-02T00:07:13;15.00;99.90
8914;DHT22;4492;48.736;9.092;2023-07-02T00:09:40;15.00;99.90
8914;DHT22;4492;48.736;9.092;2023-07-02T00:12:06;15.00;99.90
8914;DHT22;4492;48.736;9.092;2023-07-02T00:14:32;14.90;99.90
8914;DHT22;4492;48.736;9.092;2023-07-02T00:16:58;14.90;99.90
8914;DHT22;4492;48.736;9.092;2023-07-02T00:19:23;15.00;99.90
8914;DHT22;4492;48.736;9.092;2023-07-02T00:21:49;14.90;99.90
8914;DHT22;4492;48.736;9.092;2023-07-02T00:24:15;14.90;99.90
8914;DHT22;4492;48.736;9.092;2023-07-02T00:26:41;14.90;99.90
8914;DHT22;4492;48.736;9.092;2023-07-02T00:29:07;14.90;99.90
8914;DHT22;4492;48.736;9.092;2023-07-02T00:31:34;14.90;99.90
8914;DHT22;4492;48.736;9.092;2023-07-02T00:34:00;15.00;99.90
8914;DHT22;4492;48.736;9.092;2023-07-02T00:36:30;15.10;99.90
8914;DHT22;4492;48.736;9.092;2023-07-02T00:38:55;15.10;99.90
8914;DHT22;4492;48.736;9.092;2023-07-02T00:41:21;15.10;99.90
8914;DHT22;4492;48.736;9.092;2023-07-02T00:43:47;15.10;99.90
8914;DHT22;4492;48.736;9.092;2023-07-02T00:46:15;15.10;99.90
8914;DHT22;4492;48.736;9.092;2023-07-02T00:48:51;15.00;99.90
8914;DHT22;4492;48.736;9.092;2023-07-02T00:51:22;15.00;99.90
8914;DHT22;4492;48.736;9.092;2023-07-02T00:53:49;15.00;99.90
8914;DHT22;4492;48.736;9.092;2023-07-02T00:56:15;14.90;99.90
8914;DHT22;4492;48.736;9.092;2023-07-02T00:58:44;14.90;99.90
8914;DHT22;4492;48.736;9.092;2023-07-02T01:01:16;14.80;99.90
8914;DHT22;4492;48.736;9.092;2023-07-02T01:03:59;14.80;99.90
8914;DHT22;4492;48.736;9.092;2023-07-02T01:06:28;14.80;99.90
8914;DHT22;4492;48.736;9.092;2023-07-02T01:08:59;14.80;99.90
8914;DHT22;4492;48.736;9.092;2023-07-02T01:11:31;14.80;99.90
8914;DHT22;4492;48.736;9.092;2023-07-02T01:14:04;14.80;99.90
8914;DHT22;4492;48.736;9.092;2023-07-02T01:16:31;14.90;99.90
8914;DHT22;4492;48.736;9.092;2023-07-02T01:18:59;14.90;99.90
8914;DHT22;4492;48.736;9.092;2023-07-02T01:21:30;14.90;99.90
8914;DHT22;4492;48.736;9.092;2023-07-02T01:23:55;14.80;99.90
8914;DHT22;4492;48.736;9.092;2023-07-02T01:26:21;14.70;99.90
8914;DHT22;4492;48.736;9.092;2023-07-02T01:28:46;14.70;99.90
8914;DHT22;4492;48.736;9.092;2023-07-02T01:31:12;14.70;99.90
8914;DHT22;4492;48.736;9.092;2023-07-02T01:33:37;14.70;99.90
8914;DHT22;4492;48.736;9.092;2023-07-02T01:36:03;14.60;99.90
8914;DHT22;4492;48.736;9.092;2023-07-02T01:38:29;14.60;99.90
8914;DHT22;4492;48.736;9.092;2023-07-02T01:40:54;14.60;99.90
8914;DHT22;4492;48.736;9.092;2023-07-02T01:43:20;14.60;99.90
8914;DHT22;4492;48.736;9.092;2023-07-02T01:45:45;14.50;99.90
8914;DHT22;4492;48.736;9.092;2023-07-02T01:48:11;14.50;99.90
8914;DHT22;4492;48.736;9.092;2023-07-02T01:50:36;14.30;99.90
8914;DHT22;4492;48.736;9.092;2023-07-02T01:53:02;14.30;99.90
8914;DHT22;4492;48.736;9.092;2023-07-02T01:55:27;14.20;99.90
8914;DHT22;4492;48.736;9.092;2023-07-02T01:57:53;14.20;99.90
8914;DHT22;4492;48.736;9.092;2023-07-02T02:00:18;14.20;99.90
8914;DHT22;4492;48.736;9.092;2023-07-02T02:02:44;14.20;99.90
8914;DHT22;4492;48.736;9.092;2023-07-02T02:05:09;14.20;99.90
8914;DHT22;4492;48.736;9.092;2023-07-02T02:07:38;14.20;99.90
8914;DHT22;4492;48.736;9.092;2023-07-02T02:10:04;14.20;99.90
8914;DHT22;4492;48.736;9.092;2023-07-02T02:12:30;14.20;99.90
8914;DHT22;4492;48.736;9.092;2023-07-02T02:14:56;14.20;99.90
8914;DHT22;4492;48.736;9.092;2023-07-02T02:17:21;14.30;99.90
8914;DHT22;4492;48.736;9.092;2023-07-02T02:19:49;14.40;99.90
8914;DHT22;4492;48.736;9.092;2023-07-02T02:22:14;14.40;99.90
8914;DHT22;4492;48.736;9.092;2023-07-02T02:24:40;14.50;99.90
8914;DHT22;4492;48.736;9.092;2023-07-02T02:27:05;14.60;99.90
8914;DHT22;4492;48.736;9.092;2023-07-02T02:29:31;14.60;99.90
8914;DHT22;4492;48.736;9.092;2023-07-02T02:31:57;14.70;99.90
8914;DHT22;4492;48.736;9.092;2023-07-02T02:34:22;14.80;99.90
8914;DHT22;4492;48.736;9.092;2023-07-02T02:36:48;14.80;99.90
8914;DHT22;4492;48.736;9.092;2023-07-02T02:39:13;14.80;99.90
8914;DHT22;4492;48.736;9.092;2023-07-02T02:41:39;14.90;99.90
8914;DHT22;4492;48.736;9.092;2023-07-02T02:44:05;14.90;99.90
8914;DHT22;4492;48.736;9.092;2023-07-02T02:46:31;14.90;99.90
8914;DHT22;4492;48.736;9.092;2023-07-02T02:48:56;14.90;99.90
8914;DHT22;4492;48.736;9.092;2023-07-02T02:51:22;15.00;99.90
8914;DHT22;4492;48.736;9.092;2023-07-02T02:53:47;15.10;99.90
8914;DHT22;4492;48.736;9.092;2023-07-02T02:56:13;15.10;99.90
8914;DHT22;4492;48.736;9.092;2023-07-02T02:58:39;15.10;99.90
8914;DHT22;4492;48.736;9.092;2023-07-02T03:01:05;15.10;99.90
8914;DHT22;4492;48.736;9.092;2023-07-02T03:03:38;15.10;99.90
8914;DHT22;4492;48.736;9.092;2023-07-02T03:06:05;15.10;99.90
8914;DHT22;4492;48.736;9.092;2023-07-02T03:08:30;15.10;99.90
8914;DHT22;4492;48.736;9.092;2023-07-02T03:10:56;15.10;99.90
8914;DHT22;4492;48.736;9.092;2023-07-02T03:13:22;15.00;99.90
8914;DHT22;4492;48.736;9.092;2023-07-02T03:15:47;15.00;99.90
8914;DHT22;4492;48.736;9.092;2023-07-02T03:18:13;15.10;99.90
8914;DHT22;4492;48.736;9.092;2023-07-02T03:20:38;15.10;99.90
8914;DHT22;4492;48.736;9.092;2023-07-02T03:23:04;14.90;99.90
8914;DHT22;4492;48.736;9.092;2023-07-02T03:25:29;14.70;99.90
8914;DHT22;4492;48.736;9.092;2023-07-02T03:27:55;14.70;99.90
8914;DHT22;4492;48.736;9.092;2023-07-02T03:30:20;14.50;99.90
8914;DHT22;4492;48.736;9.092;2023-07-02T03:32:46;14.40;99.90
8914;DHT22;4492;48.736;9.092;2023-07-02T03:35:11;14.30;99.90
8914;DHT22;4492;48.736;9.092;2023-07-02T03:37:37;14.10;99.90
8914;DHT22;4492;48.736;9.092;2023-07-02T03:40:03;14.00;99.90
8914;DHT22;4492;48.736;9.092;2023-07-02T03:42:29;14.00;99.90
8914;DHT22;4492;48.736;9.092;2023-07-02T03:44:54;14.00;99.90
8914;DHT22;4492;48.736;9.092;2023-07-02T03:47:20;13.90;99.90
8914;DHT22;4492;48.736;9.092;2023-07-02T03:49:47;13.80;99.90
8914;DHT22;4492;48.736;9.092;2023-07-02T03:52:13;13.70;99.90
8914;DHT22;4492;48.736;9.092;2023-07-02T03:54:38;13.70;99.90
8914;DHT22;4492;48.736;9.092;2023-07-02T03:57:04;13.70;99.90
8914;DHT22;4492;48.736;9.092;2023-07-02T03:59:29;13.60;99.90
8914;DHT22;4492;48.736;9.092;2023-07-02T04:01:55;13.60;99.90
8914;DHT22;4492;48.736;9.092;2023-07-02T04:04:20;13.60;99.90
8914;DHT22;4492;48.736;9.092;2023-07-02T04:06:46;13.60;99.90
8914;DHT22;4492;48.736;9.092;2023-07-02T04:09:11;13.60;99.90
8914;DHT22;4492;48.736;9.092;2023-07-02T04:11:37;13.60;99.90
8914;DHT22;4492;48.736;9.092;2023-07-02T04:14:02;13.60;99.90
8914;DHT22;4492;48.736;9.092;2023-07-02T04:16:28;13.60;99.90
8914;DHT22;4492;48.736;9.092;2023-07-02T04:18:53;13.60;99.90
8914;DHT22;4492;48.736;9.092;2023-07-02T04:21:19;13.70;99.90
8914;DHT22;4492;48.736;9.092;2023-07-02T04:23:44;13.60;99.90
8914;DHT22;4492;48.736;9.092;2023-07-02T04:26:10;13.70;99.90
8914;DHT22;4492;48.736;9.092;2023-07-02T04:28:35;13.70;99.90
8914;DHT22;4492;48.736;9.092;2023-07-02T04:31:01;13.70;99.90
8914;DHT22;4492;48.736;9.092;2023-07-02T04:33:26;13.80;99.90
8914;DHT22;4492;48.736;9.092;2023-07-02T04:36:02;13.80;99.90
8914;DHT22;4492;48.736;9.092;2023-07-02T04:38:28;13.90;99.90
8914;DHT22;4492;48.736;9.092;2023-07-02T04:40:53;13.90;99.90
8914;DHT22;4492;48.736;9.092;2023-07-02T04:43:19;14.00;99.90
8914;DHT22;4492;48.736;9.092;2023-07-02T04:45:44;14.00;99.90
8914;DHT22;4492;48.736;9.092;2023-07-02T04:48:10;14.10;99.90
8914;DHT22;4492;48.736;9.092;2023-07-02T04:50:36;14.20;99.90
8914;DHT22;4492;48.736;9.092;2023-07-02T04:53:01;14.30;99.90
8914;DHT22;4492;48.736;9.092;2023-07-02T04:55:27;14.40;99.90
8914;DHT22;4492;48.736;9.092;2023-07-02T04:57:52;14.60;99.90
8914;DHT22;4492;48.736;9.092;2023-07-02T05:00:18;14.70;99.90
8914;DHT22;4492;48.736;9.092;2023-07-02T05:02:44;14.80;99.90
8914;DHT22;4492;48.736;9.092;2023-07-02T05:05:09;15.00;99.90
8914;DHT22;4492;48.736;9.092;2023-07-02T05:07:35;15.10;99.90
8914;DHT22;4492;48.736;9.092;2023-07-02T05:10:00;15.10;99.90
8914;DHT22;4492;48.736;9.092;2023-07-02T05:12:26;15.10;99.90
8914;DHT22;4492;48.736;9.092;2023-07-02T05:14:51;15.20;99.90
8914;DHT22;4492;48.736;9.092;2023-07-02T05:17:17;15.20;99.90
8914;DHT22;4492;48.736;9.092;2023-07-02T05:19:43;15.10;99.90
8914;DHT22;4492;48.736;9.092;2023-07-02T05:22:09;15.10;99.90
8914;DHT22;4492;48.736;9.092;2023-07-02T05:24:35;15.10;99.90
8914;DHT22;4492;48.736;9.092;2023-07-02T05:27:00;15.10;99.90
8914;DHT22;4492;48.736;9.092;2023-07-02T05:29:26;15.10;99.90
8914;DHT22;4492;48.736;9.092;2023-07-02T05:31:51;15.10;99.90
8914;DHT22;4492;48.736;9.092;2023-07-02T05:34:17;15.00;99.90
8914;DHT22;4492;48.736;9.092;2023-07-02T05:36:42;15.00;99.90
8914;DHT22;4492;48.736;9.092;2023-07-02T05:39:08;15.00;99.90
8914;DHT22;4492;48.736;9.092;2023-07-02T05:41:33;15.00;99.90
8914;DHT22;4492;48.736;9.092;2023-07-02T05:44:02;15.10;99.90
8914;DHT22;4492;48.736;9.092;2023-07-02T05:46:27;15.10;99.90
8914;DHT22;4492;48.736;9.092;2023-07-02T05:48:53;15.20;99.90
8914;DHT22;4492;48.736;9.092;2023-07-02T05:51:23;15.30;99.90
8914;DHT22;4492;48.736;9.092;2023-07-02T05:53:49;15.40;99.90
8914;DHT22;4492;48.736;9.092;2023-07-02T05:56:15;15.40;99.90
8914;DHT22;4492;48.736;9.092;2023-07-02T05:58:40;15.50;99.90
8914;DHT22;4492;48.736;9.092;2023-07-02T06:01:06;15.60;99.90
8914;DHT22;4492;48.736;9.092;2023-07-02T06:03:32;15.60;99.90
8914;DHT22;4492;48.736;9.092;2023-07-02T06:05:57;15.80;99.90
8914;DHT22;4492;48.736;9.092;2023-07-02T06:08:23;15.80;99.90
8914;DHT22;4492;48.736;9.092;2023-07-02T06:10:49;15.90;99.90
8914;DHT22;4492;48.736;9.092;2023-07-02T06:13:15;16.00;99.90
8914;DHT22;4492;48.736;9.092;2023-07-02T06:15:40;16.10;99.90
8914;DHT22;4492;48.736;9.092;2023-07-02T06:18:06;16.20;99.90
8914;DHT22;4492;48.736;9.092;2023-07-02T06:20:32;16.30;99.90
8914;DHT22;4492;48.736;9.092;2023-07-02T06:22:57;16.50;99.90
8914;DHT22;4492;48.736;9.092;2023-07-02T06:25:23;16.70;99.90
8914;DHT22;4492;48.736;9.092;2023-07-02T06:27:48;17.00;99.90
8914;DHT22;4492;48.736;9.092;2023-07-02T06:30:14;17.20;99.90
8914;DHT22;4492;48.736;9.092;2023-07-02T06:32:40;17.30;99.90
8914;DHT22;4492;48.736;9.092;2023-07-02T06:35:06;17.50;99.90
8914;DHT22;4492;48.736;9.092;2023-07-02T06:37:32;17.60;99.90
8914;DHT22;4492;48.736;9.092;2023-07-02T06:39:58;17.60;99.90
8914;DHT22;4492;48.736;9.092;2023-07-02T06:42:24;17.50;99.90
8914;DHT22;4492;48.736;9.092;2023-07-02T06:44:50;17.60;99.90
8914;DHT22;4492;48.736;9.092;2023-07-02T06:47:16;17.50;99.90
8914;DHT22;4492;48.736;9.092;2023-07-02T06:49:42;17.40;99.90
8914;DHT22;4492;48.736;9.092;2023-07-02T06:52:08;17.40;99.90
8914;DHT22;4492;48.736;9.092;2023-07-02T06:54:34;17.50;99.90
8914;DHT22;4492;48.736;9.092;2023-07-02T06:56:59;17.70;99.90
8914;DHT22;4492;48.736;9.092;2023-07-02T06:59:25;18.00;99.90
8914;DHT22;4492;48.736;9.092;2023-07-02T07:01:51;18.10;99.90
8914;DHT22;4492;48.736;9.092;2023-07-02T07:04:16;18.10;99.90
8914;DHT22;4492;48.736;9.092;2023-07-02T07:06:42;18.10;99.90
8914;DHT22;4492;48.736;9.092;2023-07-02T07:09:08;18.10;99.90
8914;DHT22;4492;48.736;9.092;2023-07-02T07:11:34;18.30;99.90
8914;DHT22;4492;48.736;9.092;2023-07-02T07:13:59;18.40;99.90
8914;DHT22;4492;48.736;9.092;2023-07-02T07:16:25;18.40;99.90
8914;DHT22;4492;48.736;9.092;2023-07-02T07:18:52;18.50;99.90
8914;DHT22;4492;48.736;9.092;2023-07-02T07:21:17;18.60;99.90
8914;DHT22;4492;48.736;9.092;2023-07-02T07:23:43;18.80;99.90
8914;DHT22;4492;48.736;9.092;2023-07-02T07:26:08;19.00;99.90
8914;DHT22;4492;48.736;9.092;2023-07-02T07:28:34;19.10;99.90
8914;DHT22;4492;48.736;9.092;2023-07-02T07:30:59;19.20;99.50
8914;DHT22;4492;48.736;9.092;2023-07-02T07:33:25;19.20;99.50
8914;DHT22;4492;48.736;9.092;2023-07-02T07:35:50;19.30;99.60
8914;DHT22;4492;48.736;9.092;2023-07-02T07:38:16;19.40;99.00
8914;DHT22;4492;48.736;9.092;2023-07-02T07:40:44;19.60;98.60
8914;DHT22;4492;48.736;9.092;2023-07-02T07:43:10;19.60;98.30
8914;DHT22;4492;48.736;9.092;2023-07-02T07:45:36;19.70;98.00
8914;DHT22;4492;48.736;9.092;2023-07-02T07:48:03;20.00;96.50
8914;DHT22;4492;48.736;9.092;2023-07-02T07:50:29;20.00;95.30
8914;DHT22;4492;48.736;9.092;2023-07-02T07:52:54;19.70;95.70
8914;DHT22;4492;48.736;9.092;2023-07-02T07:55:20;19.60;97.00
8914;DHT22;4492;48.736;9.092;2023-07-02T07:57:45;19.70;96.60
8914;DHT22;4492;48.736;9.092;2023-07-02T08:00:11;19.80;96.20
8914;DHT22;4492;48.736;9.092;2023-07-02T08:02:38;19.70;96.00
8914;DHT22;4492;48.736;9.092;2023-07-02T08:05:04;19.70;96.20
8914;DHT22;4492;48.736;9.092;2023-07-02T08:07:33;19.70;95.50
8914;DHT22;4492;48.736;9.092;2023-07-02T08:09:59;19.80;95.70
8914;DHT22;4492;48.736;9.092;2023-07-02T08:12:24;19.90;96.60
8914;DHT22;4492;48.736;9.092;2023-07-02T08:14:52;20.10;96.00
8914;DHT22;4492;48.736;9.092;2023-07-02T08:17:18;20.40;94.60
8914;DHT22;4492;48.736;9.092;2023-07-02T08:19:43;20.40;94.00
8914;DHT22;4492;48.736;9.092;2023-07-02T08:22:09;20.20;94.40
8914;DHT22;4492;48.736;9.092;2023-07-02T08:24:34;20.20;93.80
8914;DHT22;4492;48.736;9.092;2023-07-02T08:27:00;20.20;93.90
8914;DHT22;4492;48.736;9.092;2023-07-02T08:29:28;19.80;94.40
8914;DHT22;4492;48.736;9.092;2023-07-02T08:31:54;19.60;94.50
8914;DHT22;4492;48.736;9.092;2023-07-02T08:34:19;19.10;94.90
8914;DHT22;4492;48.736;9.092;2023-07-02T08:36:45;18.90;96.10
8914;DHT22;4492;48.736;9.092;2023-07-02T08:39:10;18.90;96.80
8914;DHT22;4492;48.736;9.092;2023-07-02T08:41:46;19.00;95.70
8914;DHT22;4492;48.736;9.092;2023-07-02T08:44:13;19.30;95.50
8914;DHT22;4492;48.736;9.092;2023-07-02T08:46:39;19.50;94.80
8914;DHT22;4492;48.736;9.092;2023-07-02T08:49:06;19.50;94.90
8914;DHT22;4492;48.736;9.092;2023-07-02T08:51:32;19.60;94.70
8914;DHT22;4492;48.736;9.092;2023-07-02T08:53:57;19.60;94.10
8914;DHT22;4492;48.736;9.092;2023-07-02T08:56:23;19.60;94.30
8914;DHT22;4492;48.736;9.092;2023-07-02T08:58:49;19.60;93.50
8914;DHT22;4492;48.736;9.092;2023-07-02T09:01:14;19.60;93.20
8914;DHT22;4492;48.736;9.092;2023-07-02T09:03:41;19.60;93.00
8914;DHT22;4492;48.736;9.092;2023-07-02T09:06:10;19.60;93.20
8914;DHT22;4492;48.736;9.092;2023-07-02T09:08:37;19.80;93.00
8914;DHT22;4492;48.736;9.092;2023-07-02T09:11:10;19.90;92.30
8914;DHT22;4492;48.736;9.092;2023-07-02T09:13:51;20.00;91.50
8914;DHT22;4492;48.736;9.092;2023-07-02T09:16:28;20.20;90.60
8914;DHT22;4492;48.736;9.092;2023-07-02T09:19:04;20.20;91.60
8914;DHT22;4492;48.736;9.092;2023-07-02T09:21:48;20.40;91.50
8914;DHT22;4492;48.736;9.092;2023-07-02T09:24:15;20.80;91.50
8914;DHT22;4492;48.736;9.092;2023-07-02T09:26:51;21.10;90.50
8914;DHT22;4492;48.736;9.092;2023-07-02T09:29:32;21.30;89.40
8914;DHT22;4492;48.736;9.092;2023-07-02T09:31:59;21.40;88.40
8914;DHT22;4492;48.736;9.092;2023-07-02T09:34:29;21.30;89.70
8914;DHT22;4492;48.736;9.092;2023-07-02T09:36:56;21.40;89.50
8914;DHT22;4492;48.736;9.092;2023-07-02T09:39:26;21.60;87.50
8914;DHT22;4492;48.736;9.092;2023-07-02T09:41:55;22.00;85.70
8914;DHT22;4492;48.736;9.092;2023-07-02T09:44:22;22.20;85.00
8914;DHT22;4492;48.736;9.092;2023-07-02T09:49:31;21.80;86.80
8914;DHT22;4492;48.736;9.092;2023-07-02T09:52:08;21.90;87.20
8914;DHT22;4492;48.736;9.092;2023-07-02T09:54:35;21.80;87.20
8914;DHT22;4492;48.736;9.092;2023-07-02T09:57:02;21.90;86.80
8914;DHT22;4492;48.736;9.092;2023-07-02T09:59:28;22.10;86.60
8914;DHT22;4492;48.736;9.092;2023-07-02T10:01:54;22.30;86.70
8914;DHT22;4492;48.736;9.092;2023-07-02T10:04:21;22.40;84.40
8914;DHT22;4492;48.736;9.092;2023-07-02T10:06:50;22.20;85.70
8914;DHT22;4492;48.736;9.092;2023-07-02T10:09:21;22.20;86.40
8914;DHT22;4492;48.736;9.092;2023-07-02T10:11:47;22.10;88.90
8914;DHT22;4492;48.736;9.092;2023-07-02T10:14:12;22.20;85.40
8914;DHT22;4492;48.736;9.092;2023-07-02T10:16:55;22.20;85.70
8914;DHT22;4492;48.736;9.092;2023-07-02T10:19:21;22.40;85.20
8914;DHT22;4492;48.736;9.092;2023-07-02T10:22:00;22.50;82.00
8914;DHT22;4492;48.736;9.092;2023-07-02T10:24:25;22.50;83.10
8914;DHT22;4492;48.736;9.092;2023-07-02T10:26:58;22.50;81.40
8914;DHT22;4492;48.736;9.092;2023-07-02T10:29:25;22.40;82.10
8914;DHT22;4492;48.736;9.092;2023-07-02T10:31:53;22.30;82.60
8914;DHT22;4492;48.736;9.092;2023-07-02T10:36:54;22.40;81.90
8914;DHT22;4492;48.736;9.092;2023-07-02T10:39:20;22.40;81.10
8914;DHT22;4492;48.736;9.092;2023-07-02T10:41:46;22.70;80.90
8914;DHT22;4492;48.736;9.092;2023-07-02T10:44:11;22.90;79.20
8914;DHT22;4492;48.736;9.092;2023-07-02T10:46:44;22.90;79.10
8914;DHT22;4492;48.736;9.092;2023-07-02T10:49:09;23.10;78.10
8914;DHT22;4492;48.736;9.092;2023-07-02T10:51:37;23.10;77.50
8914;DHT22;4492;48.736;9.092;2023-07-02T10:54:03;23.20;77.70
8914;DHT22;4492;48.736;9.092;2023-07-02T10:56:30;23.20;77.10
8914;DHT22;4492;48.736;9.092;2023-07-02T10:58:56;23.50;76.50
8914;DHT22;4492;48.736;9.092;2023-07-02T11:01:29;23.50;76.70
8914;DHT22;4492;48.736;9.092;2023-07-02T11:04:02;23.60;77.10
8914;DHT22;4492;48.736;9.092;2023-07-02T11:06:30;23.60;75.60
8914;DHT22;4492;48.736;9.092;2023-07-02T11:08:57;23.80;73.50
8914;DHT22;4492;48.736;9.092;2023-07-02T11:11:23;24.00;72.20
8914;DHT22;4492;48.736;9.092;2023-07-02T11:13:50;23.90;71.30
8914;DHT22;4492;48.736;9.092;2023-07-02T11:16:25;23.70;71.80
8914;DHT22;4492;48.736;9.092;2023-07-02T11:19:09;23.90;70.80
8914;DHT22;4492;48.736;9.092;2023-07-02T11:21:36;24.10;70.20
8914;DHT22;4492;48.736;9.092;2023-07-02T11:24:03;24.20;69.30
8914;DHT22;4492;48.736;9.092;2023-07-02T11:29:01;24.00;70.00
8914;DHT22;4492;48.736;9.092;2023-07-02T11:31:27;23.90;70.80
8914;DHT22;4492;48.736;9.092;2023-07-02T11:33:53;23.50;69.30
8914;DHT22;4492;48.736;9.092;2023-07-02T11:36:23;23.00;69.10
8914;DHT22;4492;48.736;9.092;2023-07-02T11:38:50;22.50;71.70
8914;DHT22;4492;48.736;9.092;2023-07-02T11:41:16;22.30;71.20
8914;DHT22;4492;48.736;9.092;2023-07-02T11:43:42;22.40;71.50
8914;DHT22;4492;48.736;9.092;2023-07-02T11:46:07;22.50;71.10
8914;DHT22;4492;48.736;9.092;2023-07-02T11:48:33;22.50;72.80
8914;DHT22;4492;48.736;9.092;2023-07-02T11:50:58;22.80;71.00
8914;DHT22;4492;48.736;9.092;2023-07-02T11:53:24;22.90;73.10
8914;DHT22;4492;48.736;9.092;2023-07-02T11:55:51;23.00;71.80
8914;DHT22;4492;48.736;9.092;2023-07-02T11:58:16;23.20;70.70
8914;DHT22;4492;48.736;9.092;2023-07-02T12:00:42;23.20;70.40
8914;DHT22;4492;48.736;9.092;2023-07-02T12:03:07;23.20;71.60
8914;DHT22;4492;48.736;9.092;2023-07-02T12:05:33;23.40;68.80
8914;DHT22;4492;48.736;9.092;2023-07-02T12:07:59;23.40;68.90
8914;DHT22;4492;48.736;9.092;2023-07-02T12:10:24;23.50;68.40
8914;DHT22;4492;48.736;9.092;2023-07-02T12:12:50;23.40;70.40
8914;DHT22;4492;48.736;9.092;2023-07-02T12:15:15;23.40;69.50
8914;DHT22;4492;48.736;9.092;2023-07-02T12:17:41;23.60;68.20
8914;DHT22;4492;48.736;9.092;2023-07-02T12:20:06;23.70;68.40
8914;DHT22;4492;48.736;9.092;2023-07-02T12:22:32;23.70;65.80
8914;DHT22;4492;48.736;9.092;2023-07-02T12:24:58;23.80;65.80
8914;DHT22;4492;48.736;9.092;2023-07-02T12:27:23;23.90;65.50
8914;DHT22;4492;48.736;9.092;2023-07-02T12:29:50;23.70;65.80
8914;DHT22;4492;48.736;9.092;2023-07-02T12:32:16;23.50;66.40
8914;DHT22;4492;48.736;9.092;2023-07-02T12:34:41;23.60;65.10
8914;DHT22;4492;48.736;9.092;2023-07-02T12:37:07;23.60;65.20
8914;DHT22;4492;48.736;9.092;2023-07-02T12:39:32;23.70;63.30
8914;DHT22;4492;48.736;9.092;2023-07-02T12:41:58;23.50;65.10
8914;DHT22;4492;48.736;9.092;2023-07-02T12:44:23;23.40;64.40
8914;DHT22;4492;48.736;9.092;2023-07-02T12:46:49;23.10;66.40
8914;DHT22;4492;48.736;9.092;2023-07-02T12:49:15;23.00;64.50
8914;DHT22;4492;48.736;9.092;2023-07-02T12:51:40;23.00;65.20
8914;DHT22;4492;48.736;9.092;2023-07-02T12:54:06;23.20;65.20
8914;DHT22;4492;48.736;9.092;2023-07-02T12:56:31;23.20;65.00
8914;DHT22;4492;48.736;9.092;2023-07-02T12:58:57;23.30;63.90
8914;DHT22;4492;48.736;9.092;2023-07-02T13:01:23;23.20;64.20
8914;DHT22;4492;48.736;9.092;2023-07-02T13:03:49;23.20;64.80
8914;DHT22;4492;48.736;9.092;2023-07-02T13:06:15;23.20;64.80
8914;DHT22;4492;48.736;9.092;2023-07-02T13:08:41;23.40;61.80
8914;DHT22;4492;48.736;9.092;2023-07-02T13:11:07;23.40;64.00
8914;DHT22;4492;48.736;9.092;2023-07-02T13:13:34;23.60;63.90
8914;DHT22;4492;48.736;9.092;2023-07-02T13:16:01;23.90;62.30
8914;DHT22;4492;48.736;9.092;2023-07-02T13:18:27;24.10;60.70
8914;DHT22;4492;48.736;9.092;2023-07-02T13:20:53;24.20;62.00
8914;DHT22;4492;48.736;9.092;2023-07-02T13:23:18;24.50;60.90
8914;DHT22;4492;48.736;9.092;2023-07-02T13:25:44;24.70;59.80
8914;DHT22;4492;48.736;9.092;2023-07-02T13:28:09;24.80;59.40
8914;DHT22;4492;48.736;9.092;2023-07-02T13:30:35;24.90;59.40
8914;DHT22;4492;48.736;9.092;2023-07-02T13:33:00;25.00;58.40
8914;DHT22;4492;48.736;9.092;2023-07-02T13:35:26;24.80;58.60
8914;DHT22;4492;48.736;9.092;2023-07-02T13:37:51;24.70;58.50
8914;DHT22;4492;48.736;9.092;2023-07-02T13:40:18;24.70;58.50
8914;DHT22;4492;48.736;9.092;2023-07-02T13:42:44;24.80;58.90
8914;DHT22;4492;48.736;9.092;2023-07-02T13:45:10;24.90;56.80
8914;DHT22;4492;48.736;9.092;2023-07-02T13:47:36;24.60;57.30
8914;DHT22;4492;48.736;9.092;2023-07-02T13:50:02;24.50;57.90
8914;DHT22;4492;48.736;9.092;2023-07-02T13:52:29;24.30;58.30
8914;DHT22;4492;48.736;9.092;2023-07-02T13:54:55;24.40;59.10
8914;DHT22;4492;48.736;9.092;2023-07-02T13:57:20;24.70;58.10
8914;DHT22;4492;48.736;9.092;2023-07-02T13:59:46;25.00;59.40
8914;DHT22;4492;48.736;9.092;2023-07-02T14:02:11;25.30;58.60
8914;DHT22;4492;48.736;9.092;2023-07-02T14:04:37;25.50;56.40
8914;DHT22;4492;48.736;9.092;2023-07-02T14:07:03;25.40;56.90
8914;DHT22;4492;48.736;9.092;2023-07-02T14:09:29;25.30;57.50
8914;DHT22;4492;48.736;9.092;2023-07-02T14:11:54;25.20;57.60
8914;DHT22;4492;48.736;9.092;2023-07-02T14:14:20;25.10;57.40
8914;DHT22;4492;48.736;9.092;2023-07-02T14:16:45;25.10;56.60
8914;DHT22;4492;48.736;9.092;2023-07-02T14:19:11;25.00;56.90
8914;DHT22;4492;48.736;9.092;2023-07-02T14:21:37;24.90;56.80
8914;DHT22;4492;48.736;9.092;2023-07-02T14:24:03;25.00;57.60
8914;DHT22;4492;48.736;9.092;2023-07-02T14:26:30;25.00;58.40
8914;DHT22;4492;48.736;9.092;2023-07-02T14:28:55;25.30;57.30
8914;DHT22;4492;48.736;9.092;2023-07-02T14:31:21;25.50;58.10
8914;DHT22;4492;48.736;9.092;2023-07-02T14:33:47;25.70;55.80
8914;DHT22;4492;48.736;9.092;2023-07-02T14:36:12;25.80;54.20
8914;DHT22;4492;48.736;9.092;2023-07-02T14:38:38;25.80;55.20
8914;DHT22;4492;48.736;9.092;2023-07-02T14:41:03;25.70;56.20
8914;DHT22;4492;48.736;9.092;2023-07-02T14:43:30;25.80;56.60
8914;DHT22;4492;48.736;9.092;2023-07-02T14:46:00;25.90;54.90
8914;DHT22;4492;48.736;9.092;2023-07-02T14:48:26;25.90;55.60
8914;DHT22;4492;48.736;9.092;2023-07-02T14:50:54;26.00;54.50
8914;DHT22;4492;48.736;9.092;2023-07-02T14:53:20;26.20;55.20
8914;DHT22;4492;48.736;9.092;2023-07-02T14:55:47;26.40;54.70
8914;DHT22;4492;48.736;9.092;2023-07-02T14:58:14;26.60;54.20
8914;DHT22;4492;48.736;9.092;2023-07-02T15:00:51;26.70;53.80
8914;DHT22;4492;48.736;9.092;2023-07-02T15:03:18;26.80;53.30
8914;DHT22;4492;48.736;9.092;2023-07-02T15:05:46;26.70;53.50
8914;DHT22;4492;48.736;9.092;2023-07-02T15:08:12;26.60;54.30
8914;DHT22;4492;48.736;9.092;2023-07-02T15:10:38;26.50;54.30
8914;DHT22;4492;48.736;9.092;2023-07-02T15:13:08;26.50;53.90
8914;DHT22;4492;48.736;9.092;2023-07-02T15:15:34;26.40;54.50
8914;DHT22;4492;48.736;9.092;2023-07-02T15:18:04;26.50;53.50
8914;DHT22;4492;48.736;9.092;2023-07-02T15:20:30;26.70;54.30
8914;DHT22;4492;48.736;9.092;2023-07-02T15:22:55;27.20;53.90
8914;DHT22;4492;48.736;9.092;2023-07-02T15:25:21;27.70;52.50
8914;DHT22;4492;48.736;9.092;2023-07-02T15:27:47;27.70;52.50
8914;DHT22;4492;48.736;9.092;2023-07-02T15:30:13;27.40;52.40
8914;DHT22;4492;48.736;9.092;2023-07-02T15:32:39;27.50;53.10
8914;DHT22;4492;48.736;9.092;2023-07-02T15:35:05;27.60;52.50
8914;DHT22;4492;48.736;9.092;2023-07-02T15:37:31;27.00;52.80
8914;DHT22;4492;48.736;9.092;2023-07-02T15:39:56;26.30;54.00
8914;DHT22;4492;48.736;9.092;2023-07-02T15:42:22;26.00;55.00
8914;DHT22;4492;48.736;9.092;2023-07-02T15:44:49;26.50;54.90
8914;DHT22;4492;48.736;9.092;2023-07-02T15:47:15;26.80;54.20
8914;DHT22;4492;48.736;9.092;2023-07-02T15:49:40;27.20;54.40
8914;DHT22;4492;48.736;9.092;2023-07-02T15:52:06;27.90;51.80
8914;DHT22;4492;48.736;9.092;2023-07-02T15:54:32;28.20;50.50
8914;DHT22;4492;48.736;9.092;2023-07-02T15:56:58;28.00;50.30
8914;DHT22;4492;48.736;9.092;2023-07-02T15:59:24;27.50;51.20
8914;DHT22;4492;48.736;9.092;2023-07-02T16:01:50;27.30;51.50
8914;DHT22;4492;48.736;9.092;2023-07-02T16:04:15;27.60;52.20
8914;DHT22;4492;48.736;9.092;2023-07-02T16:06:41;28.10;51.20